sensor_id;sensor_type;location;lat;lon;timestamp;pressure;altitude;pressure_sealevel;temperature;humidity
59106;BME280;44891;50.204;8.132;2023-07-31T00:00:59;98057.84;;;17.78;74.03
59106;BME280;44891;50.204;8.132;2023-07-31T00:05:02;98064.13;;;17.82;73.88
59106;BME280;44891;50.204;8.132;2023-07-31T00:09:06;98058.63;;;17.78;74.18
59106;BME280;44891;50.204;8.132;2023-07-31T00:13:09;98045.53;;;17.82;76.38
59106;BME280;44891;50.204;8.132;2023-07-31T00:17:12;98047.50;;;17.76;75.12
59106;BME280;44891;50.204;8.132;2023-07-31T00:21:14;97995.88;;;17.45;76.24
59106;BME280;44891;50.204;8.132;2023-07-31T00:25:20;98037.78;;;17.66;77.05
59106;BME280;44891;50.204;8.132;2023-07-31T00:29:23;98048.47;;;17.61;77.96
59106;BME280;44891;50.204;8.132;2023-07-31T00:33:26;98034.03;;;17.67;76.32
59106;BME280;44891;50.204;8.132;2023-07-31T00:37:30;98039.59;;;17.71;77.27
59106;BME280;44891;50.204;8.132;2023-07-31T00:41:47;98034.09;;;17.62;76.45
59106;BME280;44891;50.204;8.132;2023-07-31T00:45:49;98031.19;;;17.64;76.55
59106;BME280;44891;50.204;8.132;2023-07-31T00:49:52;97956.19;;;17.16;76.81
59106;BME280;44891;50.204;8.132;2023-07-31T00:53:59;98016.75;;;17.70;76.57
59106;BME280;44891;50.204;8.132;2023-07-31T00:58:03;97984.47;;;17.44;76.58
59106;BME280;44891;50.204;8.132;2023-07-31T01:02:06;97996.81;;;17.54;76.85
59106;BME280;44891;50.204;8.132;2023-07-31T01:06:14;98006.13;;;17.70;77.34
59106;BME280;44891;50.204;8.132;2023-07-31T01:10:21;98001.69;;;17.65;76.14
59106;BME280;44891;50.204;8.132;2023-07-31T01:14:28;97999.75;;;17.71;75.74
59106;BME280;44891;50.204;8.132;2023-07-31T01:18:30;97996.56;;;17.69;75.94
59106;BME280;44891;50.204;8.132;2023-07-31T01:22:46;98004.03;;;17.67;76.47
59106;BME280;44891;50.204;8.132;2023-07-31T01:26:56;97959.50;;;17.45;76.09
59106;BME280;44891;50.204;8.132;2023-07-31T01:31:02;97984.38;;;17.68;75.41
59106;BME280;44891;50.204;8.132;2023-07-31T01:35:07;97987.53;;;17.70;75.79
59106;BME280;44891;50.204;8.132;2023-07-31T01:39:10;97942.50;;;17.46;75.97
59106;BME280;44891;50.204;8.132;2023-07-31T01:43:14;97985.94;;;17.69;75.44
59106;BME280;44891;50.204;8.132;2023-07-31T01:47:16;97992.28;;;17.73;75.83
59106;BME280;44891;50.204;8.132;2023-07-31T01:51:19;97986.41;;;17.76;75.42
59106;BME280;44891;50.204;8.132;2023-07-31T01:55:21;97993.84;;;17.74;76.21
59106;BME280;44891;50.204;8.132;2023-07-31T01:59:25;97976.50;;;17.63;76.32
59106;BME280;44891;50.204;8.132;2023-07-31T02:03:27;97989.34;;;17.75;76.66
59106;BME280;44891;50.204;8.132;2023-07-31T02:07:30;97990.13;;;17.75;77.42
59106;BME280;44891;50.204;8.132;2023-07-31T02:11:32;97980.00;;;17.58;78.31
59106;BME280;44891;50.204;8.132;2023-07-31T02:15:36;97989.94;;;17.72;78.52
59106;BME280;44891;50.204;8.132;2023-07-31T02:19:38;97984.03;;;17.75;78.23
59106;BME280;44891;50.204;8.132;2023-07-31T02:23:41;97974.97;;;17.76;78.17
59106;BME280;44891;50.204;8.132;2023-07-31T02:27:43;97970.28;;;17.67;79.02
59106;BME280;44891;50.204;8.132;2023-07-31T02:31:47;97988.31;;;17.71;79.18
59106;BME280;44891;50.204;8.132;2023-07-31T02:35:49;97961.84;;;17.65;78.70
59106;BME280;44891;50.204;8.132;2023-07-31T02:39:52;97970.19;;;17.59;79.68
59106;BME280;44891;50.204;8.132;2023-07-31T02:43:55;97980.00;;;17.58;81.00
59106;BME280;44891;50.204;8.132;2023-07-31T02:47:58;97967.66;;;17.49;81.00
59106;BME280;44891;50.204;8.132;2023-07-31T02:52:01;97979.59;;;17.51;80.70
59106;BME280;44891;50.204;8.132;2023-07-31T02:56:04;97977.00;;;17.46;81.63
59106;BME280;44891;50.204;8.132;2023-07-31T03:00:07;97961.56;;;17.29;82.45
59106;BME280;44891;50.204;8.132;2023-07-31T03:04:11;97973.78;;;17.30;83.38
59106;BME280;44891;50.204;8.132;2023-07-31T03:08:14;97981.75;;;17.30;84.09
59106;BME280;44891;50.204;8.132;2023-07-31T03:12:16;97974.22;;;17.19;84.70
59106;BME280;44891;50.204;8.132;2023-07-31T03:16:20;97964.59;;;17.23;84.12
59106;BME280;44891;50.204;8.132;2023-07-31T03:20:25;97967.53;;;17.21;84.99
59106;BME280;44891;50.204;8.132;2023-07-31T03:24:28;97935.84;;;16.92;85.13
59106;BME280;44891;50.204;8.132;2023-07-31T03:28:33;97983.47;;;17.21;85.32
59106;BME280;44891;50.204;8.132;2023-07-31T03:32:37;97981.94;;;17.15;86.05
59106;BME280;44891;50.204;8.132;2023-07-31T03:36:41;97983.53;;;17.16;86.10
59106;BME280;44891;50.204;8.132;2023-07-31T03:40:44;97950.53;;;17.03;86.32
59106;BME280;44891;50.204;8.132;2023-07-31T03:44:46;97975.00;;;17.19;87.12
59106;BME280;44891;50.204;8.132;2023-07-31T03:48:48;97975.06;;;17.14;86.77
59106;BME280;44891;50.204;8.132;2023-07-31T03:52:52;97943.22;;;16.95;87.19
59106;BME280;44891;50.204;8.132;2023-07-31T03:56:55;97965.47;;;17.18;87.40
59106;BME280;44891;50.204;8.132;2023-07-31T04:00:57;97945.75;;;17.05;87.34
59106;BME280;44891;50.204;8.132;2023-07-31T04:05:00;97963.38;;;17.15;87.08
59106;BME280;44891;50.204;8.132;2023-07-31T04:09:03;97952.75;;;17.15;87.35
59106;BME280;44891;50.204;8.132;2023-07-31T04:13:07;97949.03;;;17.16;86.93
59106;BME280;44891;50.204;8.132;2023-07-31T04:17:10;97934.84;;;17.07;87.65
59106;BME280;44891;50.204;8.132;2023-07-31T04:21:12;97937.50;;;17.07;88.38
59106;BME280;44891;50.204;8.132;2023-07-31T04:25:15;97914.25;;;16.80;89.58
59106;BME280;44891;50.204;8.132;2023-07-31T04:29:18;97933.91;;;16.98;90.17
59106;BME280;44891;50.204;8.132;2023-07-31T04:33:20;97937.72;;;17.10;88.95
59106;BME280;44891;50.204;8.132;2023-07-31T04:37:23;97920.19;;;17.09;88.83
59106;BME280;44891;50.204;8.132;2023-07-31T04:41:27;97926.88;;;17.07;89.01
59106;BME280;44891;50.204;8.132;2023-07-31T04:45:29;97922.16;;;17.04;89.38
59106;BME280;44891;50.204;8.132;2023-07-31T04:49:31;97935.63;;;17.07;89.33
59106;BME280;44891;50.204;8.132;2023-07-31T04:53:34;97931.09;;;17.08;89.23
59106;BME280;44891;50.204;8.132;2023-07-31T04:57:37;97917.53;;;17.09;89.40
59106;BME280;44891;50.204;8.132;2023-07-31T05:01:40;97932.06;;;17.17;88.76
59106;BME280;44891;50.204;8.132;2023-07-31T05:05:43;97931.59;;;17.29;88.35
59106;BME280;44891;50.204;8.132;2023-07-31T05:09:46;97928.44;;;17.27;87.65
59106;BME280;44891;50.204;8.132;2023-07-31T05:13:49;97929.53;;;17.26;87.30
59106;BME280;44891;50.204;8.132;2023-07-31T05:17:52;97916.31;;;17.21;86.95
59106;BME280;44891;50.204;8.132;2023-07-31T05:21:55;97912.59;;;17.22;87.16
59106;BME280;44891;50.204;8.132;2023-07-31T05:26:03;97930.16;;;17.36;87.02
59106;BME280;44891;50.204;8.132;2023-07-31T05:30:08;97911.84;;;17.35;86.25
59106;BME280;44891;50.204;8.132;2023-07-31T05:34:11;97933.66;;;17.51;85.44
59106;BME280;44891;50.204;8.132;2023-07-31T05:38:15;97896.66;;;17.22;84.77
59106;BME280;44891;50.204;8.132;2023-07-31T05:42:18;97915.19;;;17.59;84.81
59106;BME280;44891;50.204;8.132;2023-07-31T05:46:22;97909.66;;;17.56;84.39
59106;BME280;44891;50.204;8.132;2023-07-31T05:50:24;97905.44;;;17.55;84.27
59106;BME280;44891;50.204;8.132;2023-07-31T05:54:26;97914.91;;;17.61;83.50
59106;BME280;44891;50.204;8.132;2023-07-31T05:58:29;97915.03;;;17.70;82.91
59106;BME280;44891;50.204;8.132;2023-07-31T06:02:33;97891.72;;;17.66;81.88
59106;BME280;44891;50.204;8.132;2023-07-31T06:06:39;97915.66;;;17.80;81.36
59106;BME280;44891;50.204;8.132;2023-07-31T06:10:43;97910.97;;;17.91;81.14
59106;BME280;44891;50.204;8.132;2023-07-31T06:14:45;97892.94;;;17.88;80.33
59106;BME280;44891;50.204;8.132;2023-07-31T06:18:51;97885.09;;;17.83;79.93
59106;BME280;44891;50.204;8.132;2023-07-31T06:22:53;97899.53;;;17.77;80.09
59106;BME280;44891;50.204;8.132;2023-07-31T06:26:56;97893.44;;;17.76;80.26
59106;BME280;44891;50.204;8.132;2023-07-31T06:30:58;97895.28;;;17.76;79.90
59106;BME280;44891;50.204;8.132;2023-07-31T06:35:05;97891.41;;;18.01;78.86
59106;BME280;44891;50.204;8.132;2023-07-31T06:39:07;97876.16;;;18.20;77.42
59106;BME280;44891;50.204;8.132;2023-07-31T06:43:09;97899.19;;;18.38;77.62
59106;BME280;44891;50.204;8.132;2023-07-31T06:47:12;97895.53;;;18.34;78.47
59106;BME280;44891;50.204;8.132;2023-07-31T06:51:16;97891.41;;;18.69;77.71
59106;BME280;44891;50.204;8.132;2023-07-31T06:55:20;97874.75;;;18.78;75.68
59106;BME280;44891;50.204;8.132;2023-07-31T06:59:23;97874.25;;;19.12;75.96
59106;BME280;44891;50.204;8.132;2023-07-31T07:03:25;97858.50;;;19.01;75.04
59106;BME280;44891;50.204;8.132;2023-07-31T07:07:29;97864.53;;;18.93;75.08
59106;BME280;44891;50.204;8.132;2023-07-31T07:11:33;97864.31;;;19.04;75.61
59106;BME280;44891;50.204;8.132;2023-07-31T07:15:35;97849.91;;;19.05;75.28
59106;BME280;44891;50.204;8.132;2023-07-31T07:19:40;97865.72;;;18.87;75.49
59106;BME280;44891;50.204;8.132;2023-07-31T07:23:44;97841.31;;;18.85;75.58
59106;BME280;44891;50.204;8.132;2023-07-31T07:27:46;97855.09;;;18.87;75.47
59106;BME280;44891;50.204;8.132;2023-07-31T07:31:49;97850.50;;;18.79;76.51
59106;BME280;44891;50.204;8.132;2023-07-31T07:35:51;97840.63;;;18.66;76.04
59106;BME280;44891;50.204;8.132;2023-07-31T07:39:57;97854.56;;;18.63;76.73
59106;BME280;44891;50.204;8.132;2023-07-31T07:43:59;97858.19;;;18.67;76.45
59106;BME280;44891;50.204;8.132;2023-07-31T07:48:02;97864.19;;;18.59;75.90
59106;BME280;44891;50.204;8.132;2023-07-31T07:52:06;97857.31;;;18.71;76.69
59106;BME280;44891;50.204;8.132;2023-07-31T07:56:10;97852.56;;;18.82;75.89
59106;BME280;44891;50.204;8.132;2023-07-31T08:00:13;97856.25;;;18.95;75.30
59106;BME280;44891;50.204;8.132;2023-07-31T08:04:17;97844.59;;;18.82;76.16
59106;BME280;44891;50.204;8.132;2023-07-31T08:08:19;97832.06;;;18.83;76.69
59106;BME280;44891;50.204;8.132;2023-07-31T08:12:23;97828.56;;;18.96;75.96
59106;BME280;44891;50.204;8.132;2023-07-31T08:16:26;97826.13;;;19.08;75.20
59106;BME280;44891;50.204;8.132;2023-07-31T08:20:28;97816.94;;;19.14;74.18
59106;BME280;44891;50.204;8.132;2023-07-31T08:24:31;97825.22;;;19.35;73.50
59106;BME280;44891;50.204;8.132;2023-07-31T08:28:35;97817.22;;;19.58;73.30
59106;BME280;44891;50.204;8.132;2023-07-31T08:32:37;97815.38;;;19.67;73.59
59106;BME280;44891;50.204;8.132;2023-07-31T08:36:41;97831.38;;;19.44;72.32
59106;BME280;44891;50.204;8.132;2023-07-31T08:40:43;97832.53;;;19.52;73.20
59106;BME280;44891;50.204;8.132;2023-07-31T08:44:47;97826.88;;;19.53;72.33
59106;BME280;44891;50.204;8.132;2023-07-31T08:48:51;97828.94;;;19.56;73.38
59106;BME280;44891;50.204;8.132;2023-07-31T08:52:55;97821.81;;;19.66;72.28
59106;BME280;44891;50.204;8.132;2023-07-31T08:56:57;97832.22;;;19.76;72.40
59106;BME280;44891;50.204;8.132;2023-07-31T09:01:04;97813.22;;;19.69;74.02
59106;BME280;44891;50.204;8.132;2023-07-31T09:05:09;97821.94;;;19.61;74.99
59106;BME280;44891;50.204;8.132;2023-07-31T09:09:12;97808.59;;;19.29;76.10
59106;BME280;44891;50.204;8.132;2023-07-31T09:13:17;97798.44;;;19.09;75.90
59106;BME280;44891;50.204;8.132;2023-07-31T09:17:30;97821.53;;;19.00;80.31
59106;BME280;44891;50.204;8.132;2023-07-31T09:21:47;97821.13;;;19.07;78.97
59106;BME280;44891;50.204;8.132;2023-07-31T09:25:50;97818.22;;;19.17;80.19
59106;BME280;44891;50.204;8.132;2023-07-31T09:29:58;97785.25;;;19.04;78.91
59106;BME280;44891;50.204;8.132;2023-07-31T09:34:02;97805.38;;;19.41;77.96
59106;BME280;44891;50.204;8.132;2023-07-31T09:38:06;97800.66;;;20.18;76.92
59106;BME280;44891;50.204;8.132;2023-07-31T09:42:09;97793.38;;;20.84;74.87
59106;BME280;44891;50.204;8.132;2023-07-31T09:46:13;97775.97;;;20.60;74.53
59106;BME280;44891;50.204;8.132;2023-07-31T09:50:17;97776.72;;;20.52;71.68
59106;BME280;44891;50.204;8.132;2023-07-31T09:54:20;97774.19;;;20.21;72.75
59106;BME280;44891;50.204;8.132;2023-07-31T09:58:23;97774.31;;;20.25;72.12
59106;BME280;44891;50.204;8.132;2023-07-31T10:02:28;97774.31;;;20.07;71.29
59106;BME280;44891;50.204;8.132;2023-07-31T10:06:36;97771.59;;;19.99;70.56
59106;BME280;44891;50.204;8.132;2023-07-31T10:10:41;97760.66;;;20.09;71.31
59106;BME280;44891;50.204;8.132;2023-07-31T10:14:44;97753.31;;;20.23;70.31
59106;BME280;44891;50.204;8.132;2023-07-31T10:18:47;97763.06;;;20.45;68.24
59106;BME280;44891;50.204;8.132;2023-07-31T10:22:51;97745.34;;;20.41;69.10
59106;BME280;44891;50.204;8.132;2023-07-31T10:26:58;97741.56;;;20.76;67.47
59106;BME280;44891;50.204;8.132;2023-07-31T10:31:03;97742.69;;;20.75;67.25
59106;BME280;44891;50.204;8.132;2023-07-31T10:35:08;97739.34;;;20.96;66.41
59106;BME280;44891;50.204;8.132;2023-07-31T10:39:36;97748.13;;;21.05;66.46
59106;BME280;44891;50.204;8.132;2023-07-31T10:43:40;97731.59;;;21.20;65.56
59106;BME280;44891;50.204;8.132;2023-07-31T10:47:43;97713.41;;;21.13;65.78
59106;BME280;44891;50.204;8.132;2023-07-31T10:51:48;97723.41;;;21.34;63.77
59106;BME280;44891;50.204;8.132;2023-07-31T10:55:57;97728.94;;;21.29;62.60
59106;BME280;44891;50.204;8.132;2023-07-31T11:00:17;97717.81;;;21.56;62.22
59106;BME280;44891;50.204;8.132;2023-07-31T11:04:25;97680.91;;;21.50;62.43
59106;BME280;44891;50.204;8.132;2023-07-31T11:08:29;97706.44;;;21.30;62.60
59106;BME280;44891;50.204;8.132;2023-07-31T11:12:35;97713.72;;;21.03;62.80
59106;BME280;44891;50.204;8.132;2023-07-31T11:16:41;97709.63;;;21.14;63.15
59106;BME280;44891;50.204;8.132;2023-07-31T11:20:44;97682.56;;;21.25;62.47
59106;BME280;44891;50.204;8.132;2023-07-31T11:24:47;97705.38;;;21.60;61.23
59106;BME280;44891;50.204;8.132;2023-07-31T11:28:52;97691.72;;;22.12;60.40
59106;BME280;44891;50.204;8.132;2023-07-31T11:32:55;97702.59;;;22.28;59.57
59106;BME280;44891;50.204;8.132;2023-07-31T11:36:57;97697.59;;;21.76;59.56
59106;BME280;44891;50.204;8.132;2023-07-31T11:41:02;97699.22;;;21.89;60.06
59106;BME280;44891;50.204;8.132;2023-07-31T11:45:08;97706.06;;;21.78;60.28
59106;BME280;44891;50.204;8.132;2023-07-31T11:49:11;97695.63;;;21.85;60.28
59106;BME280;44891;50.204;8.132;2023-07-31T11:53:14;97701.78;;;21.86;60.70
59106;BME280;44891;50.204;8.132;2023-07-31T11:57:16;97681.72;;;22.01;60.76
59106;BME280;44891;50.204;8.132;2023-07-31T12:01:22;97680.16;;;21.99;59.65
59106;BME280;44891;50.204;8.132;2023-07-31T12:05:26;97685.91;;;22.10;59.92
59106;BME280;44891;50.204;8.132;2023-07-31T12:09:33;97662.25;;;21.91;59.91
59106;BME280;44891;50.204;8.132;2023-07-31T12:13:35;97687.56;;;21.94;60.56
59106;BME280;44891;50.204;8.132;2023-07-31T12:17:39;97683.03;;;22.15;60.55
59106;BME280;44891;50.204;8.132;2023-07-31T12:21:42;97634.97;;;22.28;59.57
59106;BME280;44891;50.204;8.132;2023-07-31T12:25:47;97668.53;;;22.70;58.63
59106;BME280;44891;50.204;8.132;2023-07-31T12:29:49;97647.13;;;23.28;58.12
59106;BME280;44891;50.204;8.132;2023-07-31T12:33:53;97643.44;;;23.69;56.66
59106;BME280;44891;50.204;8.132;2023-07-31T12:37:56;97630.53;;;24.27;54.74
59106;BME280;44891;50.204;8.132;2023-07-31T12:42:05;97669.44;;;23.81;55.32
59106;BME280;44891;50.204;8.132;2023-07-31T12:46:09;97625.63;;;23.89;55.43
59106;BME280;44891;50.204;8.132;2023-07-31T12:50:13;97632.59;;;23.78;56.22
59106;BME280;44891;50.204;8.132;2023-07-31T12:54:15;97628.63;;;24.00;56.06
59106;BME280;44891;50.204;8.132;2023-07-31T12:58:18;97642.13;;;23.39;55.86
59106;BME280;44891;50.204;8.132;2023-07-31T13:02:20;97628.50;;;23.19;57.39
59106;BME280;44891;50.204;8.132;2023-07-31T13:06:24;97628.81;;;23.42;57.32
59106;BME280;44891;50.204;8.132;2023-07-31T13:10:27;97589.03;;;23.69;56.49
59106;BME280;44891;50.204;8.132;2023-07-31T13:14:32;97615.97;;;23.72;57.29
59106;BME280;44891;50.204;8.132;2023-07-31T13:18:34;97585.28;;;23.21;58.06
59106;BME280;44891;50.204;8.132;2023-07-31T13:22:38;97630.25;;;23.15;58.89
59106;BME280;44891;50.204;8.132;2023-07-31T13:26:41;97619.41;;;22.87;60.04
59106;BME280;44891;50.204;8.132;2023-07-31T13:30:43;97619.78;;;22.52;60.28
59106;BME280;44891;50.204;8.132;2023-07-31T13:34:47;97635.81;;;22.19;61.10
59106;BME280;44891;50.204;8.132;2023-07-31T13:38:55;97636.59;;;21.99;62.78
59106;BME280;44891;50.204;8.132;2023-07-31T13:42:57;97646.63;;;21.81;62.56
59106;BME280;44891;50.204;8.132;2023-07-31T13:47:02;97652.84;;;21.64;63.57
59106;BME280;44891;50.204;8.132;2023-07-31T13:51:05;97656.50;;;21.60;63.85
59106;BME280;44891;50.204;8.132;2023-07-31T13:55:09;97624.63;;;21.55;64.50
59106;BME280;44891;50.204;8.132;2023-07-31T13:59:11;97603.84;;;21.60;64.39
59106;BME280;44891;50.204;8.132;2023-07-31T14:03:15;97595.03;;;21.60;64.37
59106;BME280;44891;50.204;8.132;2023-07-31T14:07:18;97584.09;;;21.74;64.41
59106;BME280;44891;50.204;8.132;2023-07-31T14:11:21;97593.00;;;21.78;64.84
59106;BME280;44891;50.204;8.132;2023-07-31T14:15:24;97569.81;;;21.69;64.81
59106;BME280;44891;50.204;8.132;2023-07-31T14:19:26;97576.94;;;21.86;64.55
59106;BME280;44891;50.204;8.132;2023-07-31T14:23:28;97576.16;;;21.98;64.09
59106;BME280;44891;50.204;8.132;2023-07-31T14:27:33;97582.84;;;22.46;62.98
59106;BME280;44891;50.204;8.132;2023-07-31T14:31:35;97594.28;;;22.79;61.98
59106;BME280;44891;50.204;8.132;2023-07-31T14:35:39;97553.66;;;22.77;61.50
59106;BME280;44891;50.204;8.132;2023-07-31T14:39:41;97584.16;;;22.97;63.21
59106;BME280;44891;50.204;8.132;2023-07-31T14:43:48;97588.97;;;22.92;61.53
59106;BME280;44891;50.204;8.132;2023-07-31T14:47:52;97571.09;;;22.71;61.53
59106;BME280;44891;50.204;8.132;2023-07-31T14:51:54;97599.69;;;22.46;62.57
59106;BME280;44891;50.204;8.132;2023-07-31T14:55:57;97608.00;;;22.12;64.21
59106;BME280;44891;50.204;8.132;2023-07-31T15:00:00;97601.63;;;21.83;64.95
59106;BME280;44891;50.204;8.132;2023-07-31T15:04:08;97592.09;;;21.53;65.28
59106;BME280;44891;50.204;8.132;2023-07-31T15:08:10;97585.31;;;21.26;65.28
59106;BME280;44891;50.204;8.132;2023-07-31T15:12:12;97586.91;;;21.18;65.49
59106;BME280;44891;50.204;8.132;2023-07-31T15:16:16;97589.34;;;21.02;65.97
59106;BME280;44891;50.204;8.132;2023-07-31T15:20:20;97574.91;;;21.03;66.68
59106;BME280;44891;50.204;8.132;2023-07-31T15:24:22;97570.75;;;20.85;67.49
59106;BME280;44891;50.204;8.132;2023-07-31T15:28:24;97587.84;;;20.84;67.00
59106;BME280;44891;50.204;8.132;2023-07-31T15:32:28;97606.41;;;20.72;68.11
59106;BME280;44891;50.204;8.132;2023-07-31T15:36:31;97614.78;;;20.61;69.17
59106;BME280;44891;50.204;8.132;2023-07-31T15:40:33;97617.00;;;20.25;71.31
59106;BME280;44891;50.204;8.132;2023-07-31T15:44:35;97630.19;;;20.04;74.95
59106;BME280;44891;50.204;8.132;2023-07-31T15:48:39;97626.56;;;20.00;76.01
59106;BME280;44891;50.204;8.132;2023-07-31T15:52:42;97618.72;;;19.69;77.68
59106;BME280;44891;50.204;8.132;2023-07-31T15:56:45;97607.44;;;19.72;78.29
59106;BME280;44891;50.204;8.132;2023-07-31T16:00:48;97588.66;;;19.77;77.02
59106;BME280;44891;50.204;8.132;2023-07-31T16:04:51;97546.72;;;19.34;76.05
59106;BME280;44891;50.204;8.132;2023-07-31T16:08:55;97560.25;;;19.55;74.84
59106;BME280;44891;50.204;8.132;2023-07-31T16:13:00;97558.19;;;19.43;74.44
59106;BME280;44891;50.204;8.132;2023-07-31T16:17:02;97475.44;;;18.96;75.08
59106;BME280;44891;50.204;8.132;2023-07-31T16:21:07;97525.13;;;19.36;75.01
59106;BME280;44891;50.204;8.132;2023-07-31T16:25:10;97524.66;;;19.34;74.98
59106;BME280;44891;50.204;8.132;2023-07-31T16:29:12;97524.81;;;19.37;74.48
59106;BME280;44891;50.204;8.132;2023-07-31T16:33:14;97502.28;;;19.35;74.02
59106;BME280;44891;50.204;8.132;2023-07-31T16:37:18;97526.84;;;19.40;73.90
59106;BME280;44891;50.204;8.132;2023-07-31T16:41:20;97522.63;;;19.39;73.57
59106;BME280;44891;50.204;8.132;2023-07-31T16:45:24;97534.38;;;19.38;72.90
59106;BME280;44891;50.204;8.132;2023-07-31T16:49:28;97524.81;;;19.37;74.25
59106;BME280;44891;50.204;8.132;2023-07-31T16:53:32;97525.41;;;19.34;76.88
59106;BME280;44891;50.204;8.132;2023-07-31T16:57:35;97497.66;;;19.00;75.96
59106;BME280;44891;50.204;8.132;2023-07-31T17:01:40;97525.50;;;18.86;78.90
59106;BME280;44891;50.204;8.132;2023-07-31T17:05:43;97532.56;;;18.99;78.76
59106;BME280;44891;50.204;8.132;2023-07-31T17:09:47;97512.72;;;18.65;80.78
59106;BME280;44891;50.204;8.132;2023-07-31T17:13:50;97506.94;;;18.63;82.58
59106;BME280;44891;50.204;8.132;2023-07-31T17:17:55;97508.47;;;18.56;83.21
59106;BME280;44891;50.204;8.132;2023-07-31T17:21:57;97497.53;;;18.57;84.58
59106;BME280;44891;50.204;8.132;2023-07-31T17:26:08;97495.50;;;18.63;83.18
59106;BME280;44891;50.204;8.132;2023-07-31T17:30:13;97491.16;;;18.67;83.95
59106;BME280;44891;50.204;8.132;2023-07-31T17:34:15;97492.66;;;18.59;85.83
59106;BME280;44891;50.204;8.132;2023-07-31T17:38:18;97477.72;;;18.41;83.69
59106;BME280;44891;50.204;8.132;2023-07-31T17:42:22;97472.13;;;18.42;84.82
59106;BME280;44891;50.204;8.132;2023-07-31T17:46:25;97448.03;;;18.39;84.38
59106;BME280;44891;50.204;8.132;2023-07-31T17:50:29;97447.44;;;18.51;84.72
59106;BME280;44891;50.204;8.132;2023-07-31T17:54:32;97431.31;;;18.47;85.05
59106;BME280;44891;50.204;8.132;2023-07-31T17:58:36;97435.81;;;18.38;85.42
59106;BME280;44891;50.204;8.132;2023-07-31T18:02:38;97445.19;;;18.35;86.19
59106;BME280;44891;50.204;8.132;2023-07-31T18:06:41;97444.59;;;18.38;85.10
59106;BME280;44891;50.204;8.132;2023-07-31T18:10:45;97444.06;;;18.28;86.09
59106;BME280;44891;50.204;8.132;2023-07-31T18:14:50;97452.09;;;18.36;85.69
59106;BME280;44891;50.204;8.132;2023-07-31T18:18:52;97434.84;;;18.25;85.52
59106;BME280;44891;50.204;8.132;2023-07-31T18:22:54;97440.66;;;18.36;85.46
59106;BME280;44891;50.204;8.132;2023-07-31T18:26:57;97424.06;;;18.30;85.54
59106;BME280;44891;50.204;8.132;2023-07-31T18:31:06;97425.50;;;18.36;85.30
59106;BME280;44891;50.204;8.132;2023-07-31T18:35:09;97413.28;;;18.35;85.28
59106;BME280;44891;50.204;8.132;2023-07-31T18:39:11;97401.84;;;18.26;85.47
59106;BME280;44891;50.204;8.132;2023-07-31T18:43:14;97391.69;;;18.28;86.32
59106;BME280;44891;50.204;8.132;2023-07-31T18:47:19;97405.16;;;18.32;86.72
59106;BME280;44891;50.204;8.132;2023-07-31T18:51:21;97381.78;;;18.11;85.88
59106;BME280;44891;50.204;8.132;2023-07-31T18:55:24;97404.84;;;18.33;86.07
59106;BME280;44891;50.204;8.132;2023-07-31T18:59:29;97417.22;;;18.38;85.38
59106;BME280;44891;50.204;8.132;2023-07-31T19:03:32;97416.75;;;18.36;85.68
59106;BME280;44891;50.204;8.132;2023-07-31T19:07:35;97371.94;;;18.12;85.05
59106;BME280;44891;50.204;8.132;2023-07-31T19:11:37;97401.88;;;18.35;85.83
59106;BME280;44891;50.204;8.132;2023-07-31T19:15:40;97401.09;;;18.34;86.67
59106;BME280;44891;50.204;8.132;2023-07-31T19:19:44;97378.81;;;18.13;85.04
59106;BME280;44891;50.204;8.132;2023-07-31T19:23:46;97389.47;;;18.21;85.35
59106;BME280;44891;50.204;8.132;2023-07-31T19:27:48;97388.41;;;18.31;86.14
59106;BME280;44891;50.204;8.132;2023-07-31T19:31:50;97389.22;;;18.32;86.05
59106;BME280;44891;50.204;8.132;2023-07-31T19:35:56;97379.66;;;18.31;84.56
59106;BME280;44891;50.204;8.132;2023-07-31T19:39:59;97376.22;;;18.30;84.33
59106;BME280;44891;50.204;8.132;2023-07-31T19:44:03;97369.63;;;18.28;85.90
59106;BME280;44891;50.204;8.132;2023-07-31T19:48:05;97367.94;;;18.23;85.86
59106;BME280;44891;50.204;8.132;2023-07-31T19:52:11;97356.78;;;18.12;87.73
59106;BME280;44891;50.204;8.132;2023-07-31T19:56:13;97354.09;;;18.04;88.00
59106;BME280;44891;50.204;8.132;2023-07-31T20:00:15;97360.63;;;17.98;89.64
59106;BME280;44891;50.204;8.132;2023-07-31T20:04:19;97341.09;;;17.93;90.42
59106;BME280;44891;50.204;8.132;2023-07-31T20:08:23;97354.06;;;17.95;89.88
59106;BME280;44891;50.204;8.132;2023-07-31T20:12:26;97335.44;;;17.95;89.81
59106;BME280;44891;50.204;8.132;2023-07-31T20:16:29;97329.31;;;17.77;92.12
59106;BME280;44891;50.204;8.132;2023-07-31T20:20:32;97330.31;;;17.67;93.25
59106;BME280;44891;50.204;8.132;2023-07-31T20:24:36;97331.72;;;17.65;94.90
59106;BME280;44891;50.204;8.132;2023-07-31T20:28:38;97324.53;;;17.65;96.55
59106;BME280;44891;50.204;8.132;2023-07-31T20:32:40;97313.09;;;17.56;96.17
59106;BME280;44891;50.204;8.132;2023-07-31T20:36:43;97312.66;;;17.32;99.28
59106;BME280;44891;50.204;8.132;2023-07-31T20:40:49;97298.44;;;17.36;100.00
59106;BME280;44891;50.204;8.132;2023-07-31T20:44:52;97292.06;;;17.37;100.00
59106;BME280;44891;50.204;8.132;2023-07-31T20:48:54;97305.69;;;17.45;100.00
59106;BME280;44891;50.204;8.132;2023-07-31T20:52:57;97295.00;;;17.36;100.00
59106;BME280;44891;50.204;8.132;2023-07-31T20:57:01;97284.66;;;17.03;100.00
59106;BME280;44891;50.204;8.132;2023-07-31T21:01:03;97261.00;;;16.84;100.00
59106;BME280;44891;50.204;8.132;2023-07-31T21:05:09;97263.09;;;16.96;100.00
59106;BME280;44891;50.204;8.132;2023-07-31T21:09:11;97262.19;;;17.01;100.00
59106;BME280;44891;50.204;8.132;2023-07-31T21:13:16;97255.50;;;17.03;100.00
59106;BME280;44891;50.204;8.132;2023-07-31T21:17:19;97245.97;;;17.02;100.00
59106;BME280;44891;50.204;8.132;2023-07-31T21:21:21;97235.56;;;17.06;100.00
59106;BME280;44891;50.204;8.132;2023-07-31T21:25:23;97219.09;;;16.95;100.00
59106;BME280;44891;50.204;8.132;2023-07-31T21:29:27;97226.75;;;16.97;100.00